sensor_id;sensor_type;location;lat;lon;timestamp;P1;durP1;ratioP1;P2;durP2;ratioP2
80565;SDS011;69915;54.862;10.730;2023-10-08T00:00:43;4.00;;;0.98;;
80565;SDS011;69915;54.862;10.730;2023-10-08T00:03:15;2.67;;;0.82;;
80565;SDS011;69915;54.862;10.730;2023-10-08T00:05:42;4.35;;;0.80;;
80565;SDS011;69915;54.862;10.730;2023-10-08T00:08:08;3.22;;;0.93;;
80565;SDS011;69915;54.862;10.730;2023-10-08T00:10:38;4.63;;;1.10;;
80565;SDS011;69915;54.862;10.730;2023-10-08T00:13:08;4.95;;;0.90;;
80565;SDS011;69915;54.862;10.730;2023-10-08T00:15:37;2.88;;;0.90;;
80565;SDS011;69915;54.862;10.730;2023-10-08T00:18:12;4.10;;;0.93;;
80565;SDS011;69915;54.862;10.730;2023-10-08T00:20:40;3.67;;;0.75;;
80565;SDS011;69915;54.862;10.730;2023-10-08T00:23:13;3.45;;;0.70;;
80565;SDS011;69915;54.862;10.730;2023-10-08T00:25:42;4.50;;;1.33;;
80565;SDS011;69915;54.862;10.730;2023-10-08T00:28:12;3.17;;;1.10;;
80565;SDS011;69915;54.862;10.730;2023-10-08T00:30:39;5.50;;;0.90;;
80565;SDS011;69915;54.862;10.730;2023-10-08T00:33:06;4.03;;;1.10;;
80565;SDS011;69915;54.862;10.730;2023-10-08T00:35:36;3.63;;;0.85;;
80565;SDS011;69915;54.862;10.730;2023-10-08T00:38:07;2.38;;;1.65;;
80565;SDS011;69915;54.862;10.730;2023-10-08T00:40:39;3.47;;;1.05;;
80565;SDS011;69915;54.862;10.730;2023-10-08T00:43:32;4.07;;;1.00;;
80565;SDS011;69915;54.862;10.730;2023-10-08T00:45:58;3.38;;;1.20;;
80565;SDS011;69915;54.862;10.730;2023-10-08T00:48:24;3.38;;;0.90;;
80565;SDS011;69915;54.862;10.730;2023-10-08T00:50:57;2.42;;;0.90;;
80565;SDS011;69915;54.862;10.730;2023-10-08T00:53:58;2.40;;;0.65;;
80565;SDS011;69915;54.862;10.730;2023-10-08T00:56:32;3.83;;;0.98;;
80565;SDS011;69915;54.862;10.730;2023-10-08T00:59:32;4.10;;;1.00;;
80565;SDS011;69915;54.862;10.730;2023-10-08T01:02:06;5.15;;;0.93;;
80565;SDS011;69915;54.862;10.730;2023-10-08T01:04:33;4.30;;;1.23;;
80565;SDS011;69915;54.862;10.730;2023-10-08T01:07:01;2.58;;;0.98;;
80565;SDS011;69915;54.862;10.730;2023-10-08T01:09:41;5.88;;;0.90;;
80565;SDS011;69915;54.862;10.730;2023-10-08T01:14:53;2.35;;;0.90;;
80565;SDS011;69915;54.862;10.730;2023-10-08T01:17:20;4.38;;;1.13;;
80565;SDS011;69915;54.862;10.730;2023-10-08T01:19:57;2.72;;;0.82;;
80565;SDS011;69915;54.862;10.730;2023-10-08T01:22:33;2.58;;;0.68;;
80565;SDS011;69915;54.862;10.730;2023-10-08T01:24:59;2.72;;;1.17;;
80565;SDS011;69915;54.862;10.730;2023-10-08T01:27:29;2.53;;;0.80;;
80565;SDS011;69915;54.862;10.730;2023-10-08T01:29:59;3.97;;;1.38;;
80565;SDS011;69915;54.862;10.730;2023-10-08T01:32:34;4.28;;;0.82;;
80565;SDS011;69915;54.862;10.730;2023-10-08T01:35:01;2.97;;;0.85;;
80565;SDS011;69915;54.862;10.730;2023-10-08T01:37:29;7.80;;;1.23;;
80565;SDS011;69915;54.862;10.730;2023-10-08T01:39:59;4.15;;;0.90;;
80565;SDS011;69915;54.862;10.730;2023-10-08T01:42:26;3.53;;;0.77;;
80565;SDS011;69915;54.862;10.730;2023-10-08T01:44:53;1.85;;;0.70;;
80565;SDS011;69915;54.862;10.730;2023-10-08T01:47:20;2.83;;;0.63;;
80565;SDS011;69915;54.862;10.730;2023-10-08T01:49:50;1.95;;;0.80;;
80565;SDS011;69915;54.862;10.730;2023-10-08T01:52:22;3.63;;;0.75;;
80565;SDS011;69915;54.862;10.730;2023-10-08T01:54:48;6.18;;;0.95;;
80565;SDS011;69915;54.862;10.730;2023-10-08T01:57:15;2.72;;;0.70;;
80565;SDS011;69915;54.862;10.730;2023-10-08T01:59:42;1.42;;;0.60;;
80565;SDS011;69915;54.862;10.730;2023-10-08T02:02:09;1.25;;;0.52;;
80565;SDS011;69915;54.862;10.730;2023-10-08T02:04:35;3.33;;;1.10;;
80565;SDS011;69915;54.862;10.730;2023-10-08T02:07:04;1.33;;;0.60;;
80565;SDS011;69915;54.862;10.730;2023-10-08T02:09:32;1.15;;;0.52;;
80565;SDS011;69915;54.862;10.730;2023-10-08T02:11:58;1.85;;;0.82;;
80565;SDS011;69915;54.862;10.730;2023-10-08T02:14:24;1.98;;;0.85;;
80565;SDS011;69915;54.862;10.730;2023-10-08T02:16:50;1.67;;;0.60;;
80565;SDS011;69915;54.862;10.730;2023-10-08T02:19:21;0.88;;;0.43;;
80565;SDS011;69915;54.862;10.730;2023-10-08T02:21:52;3.08;;;0.93;;
80565;SDS011;69915;54.862;10.730;2023-10-08T02:24:19;3.90;;;1.55;;
80565;SDS011;69915;54.862;10.730;2023-10-08T02:26:50;1.83;;;0.50;;
80565;SDS011;69915;54.862;10.730;2023-10-08T02:29:16;2.42;;;0.75;;
80565;SDS011;69915;54.862;10.730;2023-10-08T02:31:42;1.95;;;0.57;;
80565;SDS011;69915;54.862;10.730;2023-10-08T02:34:08;0.82;;;0.43;;
80565;SDS011;69915;54.862;10.730;2023-10-08T02:36:34;3.60;;;0.80;;
80565;SDS011;69915;54.862;10.730;2023-10-08T02:39:01;3.97;;;0.82;;
80565;SDS011;69915;54.862;10.730;2023-10-08T02:41:31;3.08;;;0.77;;
80565;SDS011;69915;54.862;10.730;2023-10-08T02:43:57;1.70;;;0.80;;
80565;SDS011;69915;54.862;10.730;2023-10-08T02:46:24;2.42;;;0.85;;
80565;SDS011;69915;54.862;10.730;2023-10-08T02:48:52;3.95;;;1.13;;
80565;SDS011;69915;54.862;10.730;2023-10-08T02:51:33;2.17;;;0.90;;
80565;SDS011;69915;54.862;10.730;2023-10-08T02:53:59;2.80;;;0.70;;
80565;SDS011;69915;54.862;10.730;2023-10-08T02:56:25;3.33;;;1.02;;
80565;SDS011;69915;54.862;10.730;2023-10-08T02:58:57;3.50;;;0.60;;
80565;SDS011;69915;54.862;10.730;2023-10-08T03:01:22;2.88;;;0.50;;
80565;SDS011;69915;54.862;10.730;2023-10-08T03:03:47;0.70;;;0.40;;
80565;SDS011;69915;54.862;10.730;2023-10-08T03:06:13;3.40;;;0.80;;
80565;SDS011;69915;54.862;10.730;2023-10-08T03:08:40;0.88;;;0.40;;
80565;SDS011;69915;54.862;10.730;2023-10-08T03:11:08;1.85;;;0.60;;
80565;SDS011;69915;54.862;10.730;2023-10-08T03:13:45;2.63;;;0.80;;
80565;SDS011;69915;54.862;10.730;2023-10-08T03:16:17;3.72;;;0.70;;
80565;SDS011;69915;54.862;10.730;2023-10-08T03:18:46;2.58;;;0.90;;
80565;SDS011;69915;54.862;10.730;2023-10-08T03:21:15;2.78;;;0.70;;
80565;SDS011;69915;54.862;10.730;2023-10-08T03:23:58;1.77;;;0.80;;
80565;SDS011;69915;54.862;10.730;2023-10-08T03:26:23;3.92;;;0.85;;
80565;SDS011;69915;54.862;10.730;2023-10-08T03:29:02;1.92;;;0.70;;
80565;SDS011;69915;54.862;10.730;2023-10-08T03:31:41;6.30;;;0.50;;
80565;SDS011;69915;54.862;10.730;2023-10-08T03:34:15;1.38;;;0.85;;
80565;SDS011;69915;54.862;10.730;2023-10-08T03:36:43;2.22;;;0.65;;
80565;SDS011;69915;54.862;10.730;2023-10-08T03:39:10;2.25;;;0.90;;
80565;SDS011;69915;54.862;10.730;2023-10-08T03:41:40;2.00;;;0.60;;
80565;SDS011;69915;54.862;10.730;2023-10-08T03:44:06;2.15;;;0.70;;
80565;SDS011;69915;54.862;10.730;2023-10-08T03:46:38;1.48;;;0.52;;
80565;SDS011;69915;54.862;10.730;2023-10-08T03:49:10;1.52;;;0.60;;
80565;SDS011;69915;54.862;10.730;2023-10-08T03:51:46;1.92;;;0.60;;
80565;SDS011;69915;54.862;10.730;2023-10-08T03:54:13;0.75;;;0.43;;
80565;SDS011;69915;54.862;10.730;2023-10-08T03:56:43;2.10;;;0.50;;
80565;SDS011;69915;54.862;10.730;2023-10-08T03:59:15;1.15;;;0.40;;
80565;SDS011;69915;54.862;10.730;2023-10-08T04:02:02;1.55;;;0.55;;
80565;SDS011;69915;54.862;10.730;2023-10-08T04:04:48;1.80;;;0.60;;
80565;SDS011;69915;54.862;10.730;2023-10-08T04:07:18;0.88;;;0.43;;
80565;SDS011;69915;54.862;10.730;2023-10-08T04:09:53;4.22;;;0.52;;
80565;SDS011;69915;54.862;10.730;2023-10-08T04:12:35;2.13;;;0.52;;
80565;SDS011;69915;54.862;10.730;2023-10-08T04:15:07;1.10;;;0.45;;
80565;SDS011;69915;54.862;10.730;2023-10-08T04:17:36;1.23;;;0.40;;
80565;SDS011;69915;54.862;10.730;2023-10-08T04:20:12;4.53;;;1.15;;
80565;SDS011;69915;54.862;10.730;2023-10-08T04:22:57;1.33;;;0.43;;
80565;SDS011;69915;54.862;10.730;2023-10-08T04:25:27;0.93;;;0.50;;
80565;SDS011;69915;54.862;10.730;2023-10-08T04:27:56;1.15;;;0.50;;
80565;SDS011;69915;54.862;10.730;2023-10-08T04:33:01;2.53;;;0.45;;
80565;SDS011;69915;54.862;10.730;2023-10-08T04:35:36;2.78;;;0.68;;
80565;SDS011;69915;54.862;10.730;2023-10-08T04:38:26;1.00;;;0.50;;
80565;SDS011;69915;54.862;10.730;2023-10-08T04:40:53;1.60;;;0.75;;
80565;SDS011;69915;54.862;10.730;2023-10-08T04:43:23;4.80;;;1.25;;
80565;SDS011;69915;54.862;10.730;2023-10-08T04:46:02;2.45;;;1.13;;
80565;SDS011;69915;54.862;10.730;2023-10-08T04:48:31;2.75;;;1.30;;
80565;SDS011;69915;54.862;10.730;2023-10-08T04:51:02;3.75;;;1.30;;
80565;SDS011;69915;54.862;10.730;2023-10-08T04:53:32;5.30;;;1.60;;
80565;SDS011;69915;54.862;10.730;2023-10-08T04:56:05;1.95;;;1.10;;
80565;SDS011;69915;54.862;10.730;2023-10-08T04:58:41;3.53;;;1.05;;
80565;SDS011;69915;54.862;10.730;2023-10-08T05:01:11;7.00;;;0.77;;
80565;SDS011;69915;54.862;10.730;2023-10-08T05:03:49;1.23;;;0.68;;
80565;SDS011;69915;54.862;10.730;2023-10-08T05:06:31;4.10;;;0.80;;
80565;SDS011;69915;54.862;10.730;2023-10-08T05:09:03;2.45;;;0.57;;
80565;SDS011;69915;54.862;10.730;2023-10-08T05:11:51;1.20;;;0.60;;
80565;SDS011;69915;54.862;10.730;2023-10-08T05:16:58;6.07;;;1.02;;
80565;SDS011;69915;54.862;10.730;2023-10-08T05:19:34;2.13;;;0.60;;
80565;SDS011;69915;54.862;10.730;2023-10-08T05:22:13;2.20;;;1.23;;
80565;SDS011;69915;54.862;10.730;2023-10-08T05:24:47;2.88;;;0.80;;
80565;SDS011;69915;54.862;10.730;2023-10-08T05:27:32;2.63;;;0.57;;
80565;SDS011;69915;54.862;10.730;2023-10-08T05:32:58;2.30;;;0.88;;
80565;SDS011;69915;54.862;10.730;2023-10-08T05:35:42;3.53;;;1.30;;
80565;SDS011;69915;54.862;10.730;2023-10-08T05:38:09;2.55;;;0.50;;
80565;SDS011;69915;54.862;10.730;2023-10-08T05:40:51;4.13;;;0.80;;
80565;SDS011;69915;54.862;10.730;2023-10-08T05:43:23;1.35;;;0.73;;
80565;SDS011;69915;54.862;10.730;2023-10-08T05:46:08;1.23;;;0.52;;
80565;SDS011;69915;54.862;10.730;2023-10-08T05:48:47;3.30;;;0.73;;
80565;SDS011;69915;54.862;10.730;2023-10-08T05:51:41;4.60;;;0.90;;
80565;SDS011;69915;54.862;10.730;2023-10-08T05:54:14;3.63;;;0.73;;
80565;SDS011;69915;54.862;10.730;2023-10-08T05:56:55;3.03;;;1.00;;
80565;SDS011;69915;54.862;10.730;2023-10-08T06:02:31;3.47;;;1.10;;
80565;SDS011;69915;54.862;10.730;2023-10-08T06:10:18;2.88;;;1.20;;
80565;SDS011;69915;54.862;10.730;2023-10-08T06:18:19;4.40;;;1.45;;
80565;SDS011;69915;54.862;10.730;2023-10-08T06:20:48;1.70;;;0.82;;
80565;SDS011;69915;54.862;10.730;2023-10-08T06:23:19;2.58;;;0.90;;
80565;SDS011;69915;54.862;10.730;2023-10-08T06:25:49;2.53;;;0.80;;
80565;SDS011;69915;54.862;10.730;2023-10-08T06:30:50;3.38;;;1.35;;
80565;SDS011;69915;54.862;10.730;2023-10-08T06:33:22;4.03;;;1.52;;
80565;SDS011;69915;54.862;10.730;2023-10-08T06:35:56;2.75;;;0.70;;
80565;SDS011;69915;54.862;10.730;2023-10-08T06:38:46;2.80;;;0.90;;
80565;SDS011;69915;54.862;10.730;2023-10-08T06:41:15;2.05;;;0.88;;
80565;SDS011;69915;54.862;10.730;2023-10-08T06:43:47;1.65;;;0.85;;
80565;SDS011;69915;54.862;10.730;2023-10-08T06:46:28;2.38;;;1.02;;
80565;SDS011;69915;54.862;10.730;2023-10-08T06:49:07;2.38;;;1.13;;
80565;SDS011;69915;54.862;10.730;2023-10-08T06:51:38;2.20;;;0.90;;
80565;SDS011;69915;54.862;10.730;2023-10-08T06:54:04;4.65;;;1.13;;
80565;SDS011;69915;54.862;10.730;2023-10-08T06:56:29;3.83;;;1.35;;
80565;SDS011;69915;54.862;10.730;2023-10-08T06:58:56;3.20;;;1.15;;
80565;SDS011;69915;54.862;10.730;2023-10-08T07:01:24;3.95;;;1.45;;
80565;SDS011;69915;54.862;10.730;2023-10-08T07:03:56;2.53;;;1.15;;
80565;SDS011;69915;54.862;10.730;2023-10-08T07:06:28;2.22;;;0.77;;
80565;SDS011;69915;54.862;10.730;2023-10-08T07:08:59;2.38;;;1.02;;
80565;SDS011;69915;54.862;10.730;2023-10-08T07:11:30;2.42;;;0.90;;
80565;SDS011;69915;54.862;10.730;2023-10-08T07:14:00;2.65;;;1.30;;
80565;SDS011;69915;54.862;10.730;2023-10-08T07:16:29;3.60;;;1.58;;
80565;SDS011;69915;54.862;10.730;2023-10-08T07:18:55;3.58;;;1.15;;
80565;SDS011;69915;54.862;10.730;2023-10-08T07:21:27;1.33;;;0.65;;
80565;SDS011;69915;54.862;10.730;2023-10-08T07:24:09;1.83;;;0.80;;
80565;SDS011;69915;54.862;10.730;2023-10-08T07:26:40;8.65;;;1.05;;
80565;SDS011;69915;54.862;10.730;2023-10-08T07:29:11;0.47;;;0.47;;
80565;SDS011;69915;54.862;10.730;2023-10-08T07:31:38;2.88;;;0.90;;
80565;SDS011;69915;54.862;10.730;2023-10-08T07:34:08;1.90;;;0.40;;
80565;SDS011;69915;54.862;10.730;2023-10-08T07:36:49;1.88;;;0.73;;
80565;SDS011;69915;54.862;10.730;2023-10-08T07:39:16;1.08;;;0.65;;
80565;SDS011;69915;54.862;10.730;2023-10-08T07:42:05;1.25;;;0.38;;
80565;SDS011;69915;54.862;10.730;2023-10-08T07:44:31;0.20;;;0.20;;
80565;SDS011;69915;54.862;10.730;2023-10-08T07:46:56;0.35;;;0.30;;
80565;SDS011;69915;54.862;10.730;2023-10-08T07:49:25;0.93;;;0.20;;
80565;SDS011;69915;54.862;10.730;2023-10-08T07:51:55;0.70;;;0.25;;
80565;SDS011;69915;54.862;10.730;2023-10-08T07:54:23;2.20;;;0.20;;
80565;SDS011;69915;54.862;10.730;2023-10-08T07:56:50;0.75;;;0.40;;
80565;SDS011;69915;54.862;10.730;2023-10-08T07:59:36;0.22;;;0.22;;
80565;SDS011;69915;54.862;10.730;2023-10-08T08:02:04;1.15;;;0.73;;
80565;SDS011;69915;54.862;10.730;2023-10-08T08:04:40;2.33;;;0.45;;
80565;SDS011;69915;54.862;10.730;2023-10-08T08:07:10;0.73;;;0.30;;
80565;SDS011;69915;54.862;10.730;2023-10-08T08:09:42;3.65;;;0.80;;
80565;SDS011;69915;54.862;10.730;2023-10-08T08:12:15;0.68;;;0.30;;
80565;SDS011;69915;54.862;10.730;2023-10-08T08:14:41;0.73;;;0.30;;
80565;SDS011;69915;54.862;10.730;2023-10-08T08:17:07;0.60;;;0.20;;
80565;SDS011;69915;54.862;10.730;2023-10-08T08:19:39;3.05;;;0.28;;
80565;SDS011;69915;54.862;10.730;2023-10-08T08:22:16;0.90;;;0.40;;
80565;SDS011;69915;54.862;10.730;2023-10-08T08:24:49;1.35;;;0.57;;
80565;SDS011;69915;54.862;10.730;2023-10-08T08:27:20;2.70;;;0.52;;
80565;SDS011;69915;54.862;10.730;2023-10-08T08:29:56;1.95;;;0.45;;
80565;SDS011;69915;54.862;10.730;2023-10-08T08:32:35;1.75;;;0.38;;
80565;SDS011;69915;54.862;10.730;2023-10-08T08:35:05;0.85;;;0.22;;
80565;SDS011;69915;54.862;10.730;2023-10-08T08:37:33;0.45;;;0.20;;
80565;SDS011;69915;54.862;10.730;2023-10-08T08:40:01;0.82;;;0.20;;
80565;SDS011;69915;54.862;10.730;2023-10-08T08:42:31;1.30;;;0.20;;
80565;SDS011;69915;54.862;10.730;2023-10-08T08:45:00;1.10;;;0.20;;
80565;SDS011;69915;54.862;10.730;2023-10-08T08:47:33;0.28;;;0.10;;
80565;SDS011;69915;54.862;10.730;2023-10-08T08:50:00;0.60;;;0.20;;
80565;SDS011;69915;54.862;10.730;2023-10-08T08:52:34;1.10;;;0.20;;
80565;SDS011;69915;54.862;10.730;2023-10-08T08:55:03;1.08;;;0.30;;
80565;SDS011;69915;54.862;10.730;2023-10-08T08:57:31;0.68;;;0.20;;
80565;SDS011;69915;54.862;10.730;2023-10-08T08:59:58;2.13;;;0.40;;
80565;SDS011;69915;54.862;10.730;2023-10-08T09:02:24;1.23;;;0.50;;
80565;SDS011;69915;54.862;10.730;2023-10-08T09:04:50;1.15;;;0.38;;
80565;SDS011;69915;54.862;10.730;2023-10-08T09:07:19;0.80;;;0.32;;
80565;SDS011;69915;54.862;10.730;2023-10-08T09:09:46;2.10;;;0.60;;
80565;SDS011;69915;54.862;10.730;2023-10-08T09:12:15;0.63;;;0.30;;
80565;SDS011;69915;54.862;10.730;2023-10-08T09:14:42;0.80;;;0.50;;
80565;SDS011;69915;54.862;10.730;2023-10-08T09:17:09;0.40;;;0.30;;
80565;SDS011;69915;54.862;10.730;2023-10-08T09:19:35;1.42;;;0.45;;
80565;SDS011;69915;54.862;10.730;2023-10-08T09:22:09;0.60;;;0.40;;
80565;SDS011;69915;54.862;10.730;2023-10-08T09:24:37;0.77;;;0.43;;
80565;SDS011;69915;54.862;10.730;2023-10-08T09:27:05;0.30;;;0.20;;
80565;SDS011;69915;54.862;10.730;2023-10-08T09:29:39;0.70;;;0.32;;
80565;SDS011;69915;54.862;10.730;2023-10-08T09:32:06;0.85;;;0.40;;
80565;SDS011;69915;54.862;10.730;2023-10-08T09:34:34;1.08;;;0.30;;
80565;SDS011;69915;54.862;10.730;2023-10-08T09:37:01;1.35;;;0.32;;
80565;SDS011;69915;54.862;10.730;2023-10-08T09:39:28;1.30;;;0.30;;
80565;SDS011;69915;54.862;10.730;2023-10-08T09:41:59;0.90;;;0.38;;
80565;SDS011;69915;54.862;10.730;2023-10-08T09:44:27;0.65;;;0.30;;
80565;SDS011;69915;54.862;10.730;2023-10-08T09:46:55;0.47;;;0.40;;
80565;SDS011;69915;54.862;10.730;2023-10-08T09:49:31;1.42;;;0.60;;
80565;SDS011;69915;54.862;10.730;2023-10-08T09:52:02;2.22;;;0.47;;
80565;SDS011;69915;54.862;10.730;2023-10-08T09:54:31;1.10;;;0.50;;
80565;SDS011;69915;54.862;10.730;2023-10-08T09:57:05;3.35;;;0.47;;
80565;SDS011;69915;54.862;10.730;2023-10-08T09:59:32;0.75;;;0.30;;
80565;SDS011;69915;54.862;10.730;2023-10-08T10:01:59;3.10;;;0.45;;
80565;SDS011;69915;54.862;10.730;2023-10-08T10:04:29;2.10;;;0.60;;
80565;SDS011;69915;54.862;10.730;2023-10-08T10:06:57;1.63;;;0.60;;
80565;SDS011;69915;54.862;10.730;2023-10-08T10:09:23;0.40;;;0.30;;
80565;SDS011;69915;54.862;10.730;2023-10-08T10:11:50;0.95;;;0.40;;
80565;SDS011;69915;54.862;10.730;2023-10-08T10:14:18;0.98;;;0.38;;
80565;SDS011;69915;54.862;10.730;2023-10-08T10:19:39;1.52;;;0.40;;
80565;SDS011;69915;54.862;10.730;2023-10-08T10:22:11;2.00;;;0.40;;
80565;SDS011;69915;54.862;10.730;2023-10-08T10:27:10;0.30;;;0.30;;
80565;SDS011;69915;54.862;10.730;2023-10-08T10:29:40;3.33;;;0.57;;
80565;SDS011;69915;54.862;10.730;2023-10-08T10:32:10;1.02;;;0.50;;
80565;SDS011;69915;54.862;10.730;2023-10-08T10:37:04;1.25;;;0.50;;
80565;SDS011;69915;54.862;10.730;2023-10-08T10:39:54;0.30;;;0.30;;
80565;SDS011;69915;54.862;10.730;2023-10-08T10:42:24;1.15;;;0.40;;
80565;SDS011;69915;54.862;10.730;2023-10-08T10:44:51;1.35;;;0.60;;
80565;SDS011;69915;54.862;10.730;2023-10-08T10:47:18;2.83;;;0.85;;
80565;SDS011;69915;54.862;10.730;2023-10-08T10:49:50;3.15;;;0.40;;
80565;SDS011;69915;54.862;10.730;2023-10-08T10:52:17;1.38;;;0.65;;
80565;SDS011;69915;54.862;10.730;2023-10-08T10:55:05;0.45;;;0.30;;
80565;SDS011;69915;54.862;10.730;2023-10-08T10:57:42;0.60;;;0.30;;
80565;SDS011;69915;54.862;10.730;2023-10-08T11:00:09;1.05;;;0.47;;
80565;SDS011;69915;54.862;10.730;2023-10-08T11:03:04;1.70;;;0.43;;
80565;SDS011;69915;54.862;10.730;2023-10-08T11:05:43;0.60;;;0.40;;
80565;SDS011;69915;54.862;10.730;2023-10-08T11:08:16;0.98;;;0.43;;
80565;SDS011;69915;54.862;10.730;2023-10-08T11:11:03;1.42;;;0.40;;
80565;SDS011;69915;54.862;10.730;2023-10-08T11:13:32;2.08;;;0.90;;
80565;SDS011;69915;54.862;10.730;2023-10-08T11:16:05;0.90;;;0.40;;
80565;SDS011;69915;54.862;10.730;2023-10-08T11:18:34;0.60;;;0.20;;
80565;SDS011;69915;54.862;10.730;2023-10-08T11:21:10;2.40;;;0.52;;
80565;SDS011;69915;54.862;10.730;2023-10-08T11:23:46;1.13;;;0.40;;
80565;SDS011;69915;54.862;10.730;2023-10-08T11:26:18;0.70;;;0.30;;
80565;SDS011;69915;54.862;10.730;2023-10-08T11:28:44;0.50;;;0.30;;
80565;SDS011;69915;54.862;10.730;2023-10-08T11:31:13;1.50;;;0.70;;
80565;SDS011;69915;54.862;10.730;2023-10-08T11:33:41;1.27;;;0.38;;
80565;SDS011;69915;54.862;10.730;2023-10-08T11:36:08;0.50;;;0.20;;
80565;SDS011;69915;54.862;10.730;2023-10-08T11:38:44;1.38;;;0.60;;
80565;SDS011;69915;54.862;10.730;2023-10-08T11:41:14;1.65;;;0.50;;
80565;SDS011;69915;54.862;10.730;2023-10-08T11:43:49;3.42;;;0.68;;
80565;SDS011;69915;54.862;10.730;2023-10-08T11:46:26;1.27;;;0.40;;
80565;SDS011;69915;54.862;10.730;2023-10-08T11:48:57;1.27;;;0.40;;
80565;SDS011;69915;54.862;10.730;2023-10-08T11:51:29;0.52;;;0.40;;
80565;SDS011;69915;54.862;10.730;2023-10-08T11:53:59;2.03;;;0.60;;
80565;SDS011;69915;54.862;10.730;2023-10-08T11:56:28;1.00;;;0.55;;
80565;SDS011;69915;54.862;10.730;2023-10-08T11:58:54;0.60;;;0.40;;
80565;SDS011;69915;54.862;10.730;2023-10-08T12:01:22;1.17;;;0.52;;
80565;SDS011;69915;54.862;10.730;2023-10-08T12:03:49;1.08;;;0.52;;
80565;SDS011;69915;54.862;10.730;2023-10-08T12:06:15;0.35;;;0.30;;
80565;SDS011;69915;54.862;10.730;2023-10-08T12:08:46;1.27;;;0.60;;
80565;SDS011;69915;54.862;10.730;2023-10-08T12:11:18;0.68;;;0.65;;
80565;SDS011;69915;54.862;10.730;2023-10-08T12:13:48;0.43;;;0.20;;
80565;SDS011;69915;54.862;10.730;2023-10-08T12:16:15;1.27;;;0.52;;
80565;SDS011;69915;54.862;10.730;2023-10-08T12:18:46;1.92;;;0.50;;
80565;SDS011;69915;54.862;10.730;2023-10-08T12:21:32;1.40;;;0.40;;
80565;SDS011;69915;54.862;10.730;2023-10-08T12:23:58;2.17;;;0.50;;
80565;SDS011;69915;54.862;10.730;2023-10-08T12:26:24;0.88;;;0.40;;
80565;SDS011;69915;54.862;10.730;2023-10-08T12:28:50;0.57;;;0.30;;
80565;SDS011;69915;54.862;10.730;2023-10-08T12:31:19;0.55;;;0.30;;
80565;SDS011;69915;54.862;10.730;2023-10-08T12:33:47;1.70;;;0.65;;
80565;SDS011;69915;54.862;10.730;2023-10-08T12:36:14;0.40;;;0.20;;
80565;SDS011;69915;54.862;10.730;2023-10-08T12:38:42;1.25;;;0.40;;
80565;SDS011;69915;54.862;10.730;2023-10-08T12:41:08;0.95;;;0.40;;
80565;SDS011;69915;54.862;10.730;2023-10-08T12:43:38;1.60;;;0.60;;
80565;SDS011;69915;54.862;10.730;2023-10-08T12:46:07;0.32;;;0.28;;
80565;SDS011;69915;54.862;10.730;2023-10-08T12:48:39;1.65;;;0.50;;
80565;SDS011;69915;54.862;10.730;2023-10-08T12:51:04;1.40;;;0.60;;
80565;SDS011;69915;54.862;10.730;2023-10-08T12:53:31;1.80;;;0.32;;
80565;SDS011;69915;54.862;10.730;2023-10-08T12:56:04;2.28;;;0.40;;
80565;SDS011;69915;54.862;10.730;2023-10-08T12:58:31;1.08;;;0.47;;
80565;SDS011;69915;54.862;10.730;2023-10-08T13:01:05;2.10;;;0.40;;
80565;SDS011;69915;54.862;10.730;2023-10-08T13:03:32;1.65;;;0.40;;
80565;SDS011;69915;54.862;10.730;2023-10-08T13:05:58;2.78;;;0.30;;
80565;SDS011;69915;54.862;10.730;2023-10-08T13:08:31;1.02;;;0.30;;
80565;SDS011;69915;54.862;10.730;2023-10-08T13:11:00;0.55;;;0.28;;
80565;SDS011;69915;54.862;10.730;2023-10-08T13:13:29;2.13;;;0.52;;
80565;SDS011;69915;54.862;10.730;2023-10-08T13:15:57;1.60;;;0.43;;
80565;SDS011;69915;54.862;10.730;2023-10-08T13:18:28;1.08;;;0.30;;
80565;SDS011;69915;54.862;10.730;2023-10-08T13:20:54;0.55;;;0.20;;
80565;SDS011;69915;54.862;10.730;2023-10-08T13:23:20;1.58;;;0.40;;
80565;SDS011;69915;54.862;10.730;2023-10-08T13:25:52;1.23;;;0.40;;
80565;SDS011;69915;54.862;10.730;2023-10-08T13:28:23;1.30;;;0.30;;
80565;SDS011;69915;54.862;10.730;2023-10-08T13:30:52;0.82;;;0.30;;
80565;SDS011;69915;54.862;10.730;2023-10-08T13:33:19;0.95;;;0.40;;
80565;SDS011;69915;54.862;10.730;2023-10-08T13:35:47;1.30;;;0.32;;
80565;SDS011;69915;54.862;10.730;2023-10-08T13:38:15;0.93;;;0.30;;
80565;SDS011;69915;54.862;10.730;2023-10-08T13:40:48;0.88;;;0.32;;
80565;SDS011;69915;54.862;10.730;2023-10-08T13:43:32;1.13;;;0.40;;
80565;SDS011;69915;54.862;10.730;2023-10-08T13:46:02;0.73;;;0.30;;
80565;SDS011;69915;54.862;10.730;2023-10-08T13:48:30;1.25;;;0.55;;
80565;SDS011;69915;54.862;10.730;2023-10-08T13:50:58;1.17;;;0.50;;
80565;SDS011;69915;54.862;10.730;2023-10-08T13:53:29;0.45;;;0.20;;
80565;SDS011;69915;54.862;10.730;2023-10-08T13:55:58;0.80;;;0.45;;
80565;SDS011;69915;54.862;10.730;2023-10-08T13:58:26;1.55;;;0.43;;
80565;SDS011;69915;54.862;10.730;2023-10-08T14:00:53;0.45;;;0.30;;
80565;SDS011;69915;54.862;10.730;2023-10-08T14:03:19;2.55;;;0.50;;
80565;SDS011;69915;54.862;10.730;2023-10-08T14:05:48;0.20;;;0.17;;
80565;SDS011;69915;54.862;10.730;2023-10-08T14:08:16;0.57;;;0.30;;
80565;SDS011;69915;54.862;10.730;2023-10-08T14:10:44;0.88;;;0.20;;
80565;SDS011;69915;54.862;10.730;2023-10-08T14:13:10;1.65;;;0.45;;
80565;SDS011;69915;54.862;10.730;2023-10-08T14:15:36;1.92;;;0.40;;
80565;SDS011;69915;54.862;10.730;2023-10-08T14:18:09;1.48;;;0.50;;
80565;SDS011;69915;54.862;10.730;2023-10-08T14:20:39;0.30;;;0.17;;
80565;SDS011;69915;54.862;10.730;2023-10-08T14:23:06;4.47;;;0.30;;
80565;SDS011;69915;54.862;10.730;2023-10-08T14:25:31;1.20;;;0.20;;
80565;SDS011;69915;54.862;10.730;2023-10-08T14:28:01;0.98;;;0.40;;
80565;SDS011;69915;54.862;10.730;2023-10-08T14:30:32;0.50;;;0.20;;
80565;SDS011;69915;54.862;10.730;2023-10-08T14:33:00;0.60;;;0.20;;
80565;SDS011;69915;54.862;10.730;2023-10-08T14:35:28;1.23;;;0.30;;
80565;SDS011;69915;54.862;10.730;2023-10-08T14:38:12;2.33;;;0.38;;
80565;SDS011;69915;54.862;10.730;2023-10-08T14:40:56;1.45;;;0.32;;
80565;SDS011;69915;54.862;10.730;2023-10-08T14:43:40;0.57;;;0.30;;
80565;SDS011;69915;54.862;10.730;2023-10-08T14:46:08;1.17;;;0.20;;
80565;SDS011;69915;54.862;10.730;2023-10-08T14:48:34;0.80;;;0.38;;
80565;SDS011;69915;54.862;10.730;2023-10-08T14:51:00;2.50;;;0.50;;
80565;SDS011;69915;54.862;10.730;2023-10-08T14:53:28;0.82;;;0.20;;
80565;SDS011;69915;54.862;10.730;2023-10-08T14:55:56;0.98;;;0.45;;
80565;SDS011;69915;54.862;10.730;2023-10-08T14:58:22;0.52;;;0.25;;
80565;SDS011;69915;54.862;10.730;2023-10-08T15:00:48;0.60;;;0.17;;
80565;SDS011;69915;54.862;10.730;2023-10-08T15:03:13;1.88;;;0.22;;
80565;SDS011;69915;54.862;10.730;2023-10-08T15:05:39;0.73;;;0.35;;
80565;SDS011;69915;54.862;10.730;2023-10-08T15:08:08;2.20;;;0.30;;
80565;SDS011;69915;54.862;10.730;2023-10-08T15:10:39;0.80;;;0.20;;
80565;SDS011;69915;54.862;10.730;2023-10-08T15:13:06;0.10;;;0.10;;
80565;SDS011;69915;54.862;10.730;2023-10-08T15:15:32;0.70;;;0.20;;
80565;SDS011;69915;54.862;10.730;2023-10-08T15:18:00;1.65;;;0.30;;
80565;SDS011;69915;54.862;10.730;2023-10-08T15:20:30;0.55;;;0.20;;
80565;SDS011;69915;54.862;10.730;2023-10-08T15:22:57;3.95;;;0.38;;
80565;SDS011;69915;54.862;10.730;2023-10-08T15:25:23;0.30;;;0.20;;
80565;SDS011;69915;54.862;10.730;2023-10-08T15:27:48;1.00;;;0.10;;
80565;SDS011;69915;54.862;10.730;2023-10-08T15:30:18;2.08;;;0.35;;